Time;durP1;ratioP1;P1;durP2;ratioP2;P2;SDS_P1;SDS_P2;PMS_P1;PMS_P2;Temp;Humidity;BMP_temperature;BMP_pressure;BME280_temperature;BME280_humidity;BME280_pressure;Samples;Min_cycle;Max_cycle;Signal;HPM_P1;HPM_P2
2022/06/12 00:00:00;;;;;;;2.90;2.00;;;;;;;17.38;100.00;101200.78;5189363;28;20125;-73
2022/06/12 00:02:30;;;;;;;2.97;1.80;;;;;;;17.56;100.00;101204.22;5222333;28;20025;-73
2022/06/12 00:05:01;;;;;;;3.33;2.00;;;;;;;17.61;100.00;101207.47;5210858;28;20044;-73
2022/06/12 00:07:32;;;;;;;3.28;2.08;;;;;;;17.49;100.00;101197.56;5195959;28;20475;-73
2022/06/12 00:10:03;;;;;;;2.97;1.90;;;;;;;17.36;100.00;101207.09;5217955;28;20028;-73
2022/06/12 00:12:34;;;;;;;3.78;1.95;;;;;;;17.21;100.00;101216.66;5205621;28;20025;-73
2022/06/12 00:15:05;;;;;;;4.85;1.90;;;;;;;17.26;100.00;101219.91;5209732;28;20449;-73
2022/06/12 00:17:36;;;;;;;3.50;1.85;;;;;;;17.49;100.00;101222.19;5196111;28;20056;-74
2022/06/12 00:20:07;;;;;;;2.83;1.80;;;;;;;17.54;100.00;101222.81;5226115;28;20017;-73
2022/06/12 00:22:38;;;;;;;3.97;1.80;;;;;;;17.31;100.00;101222.31;5212346;28;20075;-73
2022/06/12 00:25:09;;;;;;;3.42;1.80;;;;;;;17.16;100.00;101220.47;5218961;28;20021;-73
2022/06/12 00:27:41;;;;;;;2.70;1.90;;;;;;;17.21;100.00;101223.72;5226150;28;20484;-73
2022/06/12 00:30:16;;;;;;;4.88;1.98;;;;;;;17.26;100.00;101221.66;5209909;28;20433;-73
2022/06/12 00:32:52;;;;;;;2.58;1.83;;;;;;;17.41;100.00;101220.91;5217864;28;20033;-73
2022/06/12 00:35:25;;;;;;;;;;;;;;;17.38;100.00;101215.78;5218407;28;20037;-74
2022/06/12 00:37:56;;;;;;;4.97;1.98;;;;;;;17.42;100.00;101206.75;5215149;28;20188;-74
2022/06/12 00:40:27;;;;;;;3.25;2.00;;;;;;;17.33;100.00;101209.88;5218259;28;20462;-72
2022/06/12 00:43:01;;;;;;;3.03;2.13;;;;;;;17.36;100.00;101217.66;5200225;28;20129;-73
2022/06/12 00:45:35;;;;;;;3.75;1.95;;;;;;;17.33;100.00;101220.44;5215528;28;20025;-74
2022/06/12 00:48:27;;;;;;;3.75;2.10;;;;;;;17.32;100.00;101218.72;5213192;28;20025;-73
2022/06/12 00:51:09;;;;;;;3.22;1.85;;;;;;;17.36;100.00;101215.00;5205546;28;20037;-73
2022/06/12 00:53:47;;;;;;;2.40;1.90;;;;;;;17.41;100.00;101220.91;5187981;28;20059;-73
2022/06/12 00:56:24;;;;;;;2.50;1.80;;;;;;;17.64;100.00;101209.97;5205300;28;20025;-72
2022/06/12 00:59:07;;;;;;;5.20;2.00;;;;;;;17.62;100.00;101210.03;5209622;28;20025;-73
2022/06/12 01:01:51;;;;;;;3.28;1.90;;;;;;;17.37;100.00;101216.72;5212949;28;20393;-73
2022/06/12 01:07:16;;;;;;;3.00;1.95;;;;;;;17.19;100.00;101207.09;5204537;28;20548;-73
2022/06/12 01:09:50;;;;;;;3.28;2.05;;;;;;;17.26;100.00;101217.25;5210917;28;20029;-73
2022/06/12 01:12:26;;;;;;;4.22;2.00;;;;;;;17.28;100.00;101207.47;5205408;28;20076;-73
2022/06/12 01:15:01;;;;;;;3.13;2.10;;;;;;;17.27;100.00;101202.22;5212848;28;20027;-74
2022/06/12 01:17:32;;;;;;;3.38;2.55;;;;;;;17.35;100.00;101200.09;5212018;28;20037;-73
2022/06/12 01:20:10;;;;;;;2.80;2.10;;;;;;;17.38;100.00;101187.59;5208885;28;20036;-73
2022/06/12 01:23:12;;;;;;;5.18;2.10;;;;;;;17.63;100.00;101192.41;5207625;28;20083;-73
2022/06/12 01:26:03;;;;;;;3.85;2.22;;;;;;;17.70;100.00;101196.41;5212395;28;20032;-74
2022/06/12 01:28:45;;;;;;;4.60;2.45;;;;;;;17.59;100.00;101201.41;5210982;28;20033;-74
2022/06/12 01:31:19;;;;;;;4.25;2.13;;;;;;;17.40;100.00;101212.13;5213061;28;20021;-74
2022/06/12 01:34:21;;;;;;;4.20;2.17;;;;;;;17.36;100.00;101205.31;5209325;28;20108;-73
2022/06/12 01:37:26;;;;;;;5.10;2.20;;;;;;;17.39;100.00;101205.13;5155782;28;20174;-72
2022/06/12 01:40:05;;;;;;;7.50;2.50;;;;;;;17.45;100.00;101210.09;5206222;28;20095;-74
2022/06/12 01:42:45;;;;;;;4.00;2.25;;;;;;;17.61;100.00;101202.16;5202751;28;20401;-74
2022/06/12 01:45:18;;;;;;;5.88;2.20;;;;;;;17.71;100.00;101206.03;5215171;28;20510;-74
2022/06/12 01:47:57;;;;;;;3.25;2.10;;;;;;;17.91;100.00;101201.38;5210494;28;20483;-74
2022/06/12 01:50:38;;;;;;;4.93;2.20;;;;;;;17.97;100.00;101192.25;5214722;28;20029;-74
2022/06/12 01:53:19;;;;;;;4.25;1.92;;;;;;;17.91;100.00;101195.19;5207230;28;20036;-72
2022/06/12 01:56:00;;;;;;;2.90;2.20;;;;;;;17.58;100.00;101187.34;5203154;28;20032;-74
2022/06/12 01:58:37;;;;;;;5.18;2.10;;;;;;;17.44;100.00;101189.00;5209992;28;20052;-74
2022/06/12 02:01:31;;;;;;;7.25;2.30;;;;;;;17.24;100.00;101195.34;5203298;28;20087;-74
2022/06/12 02:04:38;;;;;;;4.82;2.17;;;;;;;17.52;100.00;101192.94;5214650;28;20024;-74
2022/06/12 02:07:43;;;;;;;5.25;2.30;;;;;;;17.55;100.00;101191.94;5203545;28;20036;-73
2022/06/12 02:10:16;;;;;;;3.65;2.30;;;;;;;17.65;100.00;101193.16;5161786;28;20075;-73
2022/06/12 02:13:11;;;;;;;4.95;2.15;;;;;;;17.53;100.00;101189.41;5205400;28;20029;-74
2022/06/12 02:15:57;;;;;;;3.60;2.20;;;;;;;17.37;100.00;101188.50;5204693;28;20036;-71
2022/06/12 02:18:41;;;;;;;4.82;2.10;;;;;;;17.56;100.00;101181.28;5218777;28;20040;-74
2022/06/12 02:21:22;;;;;;;5.38;2.22;;;;;;;17.60;100.00;101179.31;5209956;28;20044;-73
2022/06/12 02:23:53;;;;;;;4.32;2.20;;;;;;;17.68;100.00;101177.13;5204293;28;20044;-73
2022/06/12 02:26:29;;;;;;;4.50;2.60;;;;;;;17.39;100.00;101175.19;5193399;28;20065;-73
2022/06/12 02:29:20;;;;;;;6.28;2.45;;;;;;;17.28;100.00;101182.84;5209081;28;20793;-73
2022/06/12 02:31:54;;;;;;;9.18;2.50;;;;;;;17.08;100.00;101177.72;5206949;28;20462;-73
2022/06/12 02:34:34;;;;;;;9.32;2.70;;;;;;;17.05;100.00;101177.91;5192143;28;20041;-73
2022/06/12 02:37:13;;;;;;;4.20;2.42;;;;;;;17.08;100.00;101180.38;5212559;28;20025;-73
2022/06/12 02:39:49;;;;;;;4.07;2.28;;;;;;;17.07;100.00;101184.81;5188841;28;20025;-72
2022/06/12 02:42:48;;;;;;;4.45;2.30;;;;;;;17.11;100.00;101180.22;5208585;28;20036;-73
2022/06/12 02:45:34;;;;;;;3.28;1.98;;;;;;;17.19;100.00;101189.47;5180662;28;20037;-73
2022/06/12 02:48:06;;;;;;;4.78;2.10;;;;;;;17.41;100.00;101187.41;5207785;28;20025;-73
2022/06/12 02:50:57;;;;;;;7.15;2.47;;;;;;;17.43;100.00;101184.66;5204556;28;20032;-73
2022/06/12 02:54:01;;;;;;;5.43;2.50;;;;;;;17.59;100.00;101193.47;5205090;28;20025;-73
2022/06/12 02:56:46;;;;;;;6.93;2.58;;;;;;;17.64;100.00;101186.16;5211236;28;20697;-71
2022/06/12 02:59:31;;;;;;;7.88;2.20;;;;;;;17.79;100.00;101185.34;5207513;28;20025;-73
2022/06/12 03:02:12;;;;;;;7.00;2.63;;;;;;;17.76;100.00;101182.81;5208688;28;20032;-73
2022/06/12 03:04:59;;;;;;;4.85;2.75;;;;;;;17.81;100.00;101183.44;5210585;28;20696;-73
2022/06/12 03:07:30;;;;;;;5.88;2.53;;;;;;;17.83;100.00;101181.56;5211353;28;20032;-73
2022/06/12 03:10:06;;;;;;;8.50;2.65;;;;;;;17.65;100.00;101194.00;5213861;28;20027;-73
2022/06/12 03:12:36;;;;;;;;;;;;;;;17.62;100.00;101199.47;5209834;28;20032;-73
2022/06/12 03:15:26;;;;;;;4.70;2.10;;;;;;;17.79;100.00;101195.91;5194260;28;19921;-73
2022/06/12 03:17:59;;;;;;;8.38;2.50;;;;;;;17.78;100.00;101196.81;5212085;28;20036;-73
2022/06/12 03:20:40;;;;;;;5.55;2.20;;;;;;;17.69;100.00;101194.69;5212660;28;20021;-73
2022/06/12 03:23:36;;;;;;;4.97;2.40;;;;;;;17.44;100.00;101200.44;5213346;28;20379;-73
2022/06/12 03:26:14;;;;;;;7.30;2.50;;;;;;;17.20;100.00;101208.78;5208690;28;20727;-73
2022/06/12 03:28:44;;;;;;;4.90;2.20;;;;;;;17.29;100.00;101205.69;5209980;28;20037;-73
2022/06/12 03:31:22;;;;;;;6.45;2.30;;;;;;;17.34;100.00;101208.97;5182902;28;20021;-73
2022/06/12 03:34:03;;;;;;;9.23;2.58;;;;;;;17.28;100.00;101211.91;5203571;28;20660;-73
2022/06/12 03:36:42;;;;;;;4.65;2.17;;;;;;;17.31;100.00;101211.75;5211297;28;20112;-73
2022/06/12 03:39:18;;;;;;;4.88;2.30;;;;;;;17.34;100.00;101207.16;5190047;28;20029;-72
2022/06/12 03:41:56;;;;;;;5.13;1.85;;;;;;;17.48;100.00;101209.06;5188350;28;20025;-73
2022/06/12 03:44:39;;;;;;;7.45;2.10;;;;;;;17.35;100.00;101210.66;5205841;28;20100;-73
2022/06/12 03:47:18;;;;;;;6.72;2.42;;;;;;;17.05;100.00;101205.16;5208677;28;20021;-73
2022/06/12 03:50:37;;;;;;;4.97;2.17;;;;;;;17.18;100.00;101205.38;5209363;28;20021;-73
2022/06/12 03:53:23;;;;;;;4.32;2.20;;;;;;;17.36;100.00;101212.38;5185759;28;20033;-73
2022/06/12 03:59:07;;;;;;;4.70;2.20;;;;;;;17.56;100.00;101215.66;5212141;28;20066;-73
2022/06/12 04:01:39;;;;;;;7.40;2.60;;;;;;;17.68;100.00;101219.44;5208045;28;20017;-73
2022/06/12 04:04:12;;;;;;;5.10;2.72;;;;;;;17.95;100.00;101217.91;5214986;28;20032;-73
2022/06/12 04:06:45;;;;;;;4.43;2.30;;;;;;;17.81;100.00;101220.47;5194567;28;20104;-73
2022/06/12 04:09:21;;;;;;;6.35;2.40;;;;;;;17.87;100.00;101220.13;5213906;28;20087;-73
2022/06/12 04:11:57;;;;;;;5.25;2.65;;;;;;;17.75;100.00;101220.78;5211455;28;20025;-73
2022/06/12 04:14:37;;;;;;;6.72;2.60;;;;;;;18.08;99.37;101218.94;5203990;28;20029;-73
2022/06/12 04:17:08;;;;;;;4.88;2.35;;;;;;;18.35;97.44;101202.38;5208108;28;20470;-74
2022/06/12 04:22:37;;;;;;;8.40;2.38;;;;;;;18.43;97.43;101210.75;5212197;28;20091;-73
2022/06/12 04:25:29;;;;;;;6.30;2.28;;;;;;;18.52;98.11;101209.34;5206988;28;20498;-73
2022/06/12 04:28:00;;;;;;;8.23;2.67;;;;;;;18.61;97.81;101208.81;5211230;28;20640;-73
2022/06/12 04:30:37;;;;;;;6.22;2.60;;;;;;;18.75;94.88;101218.50;5213257;28;20024;-73
2022/06/12 04:33:44;;;;;;;5.68;2.53;;;;;;;18.65;97.68;101215.66;5207162;28;20100;-74
2022/06/12 04:36:15;;;;;;;7.10;2.60;;;;;;;18.93;93.49;101211.28;5208538;28;20551;-73
2022/06/12 04:38:46;;;;;;;6.97;2.63;;;;;;;19.26;92.44;101212.78;5212794;28;20032;-73
2022/06/12 04:41:37;;;;;;;8.07;2.67;;;;;;;19.02;93.02;101210.72;5211949;28;20036;-73
2022/06/12 04:44:08;;;;;;;6.32;2.50;;;;;;;19.41;91.70;101209.19;5181906;28;20041;-73
2022/06/12 04:46:41;;;;;;;7.25;2.60;;;;;;;19.79;90.62;101204.97;5192033;28;20471;-73
2022/06/12 04:49:19;;;;;;;6.32;2.67;;;;;;;20.19;87.87;101201.53;5211685;28;20029;-74
2022/06/12 04:51:51;;;;;;;11.10;2.60;;;;;;;21.57;81.61;101194.63;5213700;28;20025;-73
2022/06/12 04:54:23;;;;;;;7.22;2.60;;;;;;;22.00;79.19;101204.78;5214019;28;20569;-73
2022/06/12 04:56:54;;;;;;;6.07;2.00;;;;;;;23.86;73.35;101195.69;5194111;28;20032;-74
2022/06/12 04:59:26;;;;;;;5.25;2.20;;;;;;;24.55;73.67;101190.75;5212699;28;20716;-74
2022/06/12 05:01:57;;;;;;;7.28;2.53;;;;;;;24.94;69.79;101200.78;5211896;28;20029;-74
2022/06/12 05:04:28;;;;;;;5.50;2.10;;;;;;;27.09;64.58;101190.97;5213665;28;20107;-74
2022/06/12 05:06:59;;;;;;;6.05;2.30;;;;;;;25.50;71.10;101199.47;5211162;28;20025;-74
2022/06/12 05:09:33;;;;;;;5.05;2.30;;;;;;;26.78;63.03;101200.19;5211493;28;20028;-74
2022/06/12 05:12:04;;;;;;;5.03;2.17;;;;;;;26.41;63.81;101201.00;5213100;28;20501;-74
2022/06/12 05:14:35;;;;;;;9.40;2.67;;;;;;;26.53;65.66;101200.75;5202968;28;20081;-74
2022/06/12 05:17:11;;;;;;;8.82;1.88;;;;;;;27.07;63.23;101199.16;5205139;28;20033;-74
2022/06/12 05:19:43;;;;;;;7.32;2.53;;;;;;;25.02;67.54;101222.38;5212855;28;20081;-74
2022/06/12 05:22:15;;;;;;;7.15;2.17;;;;;;;24.38;68.93;101210.00;5210311;28;20040;-73
2022/06/12 05:24:45;;;;;;;11.15;2.88;;;;;;;24.82;66.69;101215.19;5212176;28;20055;-74
2022/06/12 05:27:20;;;;;;;7.50;2.50;;;;;;;25.61;65.79;101200.22;5209532;28;20056;-73
2022/06/12 05:29:52;;;;;;;8.15;2.40;;;;;;;25.28;65.92;101202.31;5211386;28;20541;-74
2022/06/12 05:32:23;;;;;;;7.15;2.45;;;;;;;26.42;64.39;101191.97;5211330;28;20040;-74
2022/06/12 05:34:53;;;;;;;8.70;2.63;;;;;;;26.24;64.63;101196.31;5211091;28;20020;-74
2022/06/12 05:37:24;;;;;;;7.90;2.67;;;;;;;26.55;64.95;101187.22;5193296;28;20477;-74
2022/06/12 05:39:54;;;;;;;10.93;2.80;;;;;;;27.92;60.14;101179.25;5210722;28;20570;-74
2022/06/12 05:42:24;;;;;;;8.77;2.90;;;;;;;27.34;60.97;101171.56;5205969;28;20577;-74
2022/06/12 05:44:55;;;;;;;10.15;2.55;;;;;;;27.82;60.50;101180.31;5187324;28;20033;-74
2022/06/12 05:47:26;;;;;;;8.82;2.95;;;;;;;26.45;63.34;101187.19;5211358;28;20028;-74
2022/06/12 05:49:56;;;;;;;8.70;2.83;;;;;;;26.27;63.25;101182.63;5210777;28;20025;-74
2022/06/12 05:52:26;;;;;;;9.95;2.88;;;;;;;24.99;66.26;101190.53;5212548;28;20117;-74
2022/06/12 05:54:57;;;;;;;8.90;2.83;;;;;;;24.62;67.13;101191.09;5210463;28;20049;-74
2022/06/12 05:57:27;;;;;;;9.82;2.60;;;;;;;24.50;69.13;101187.59;5210472;28;20021;-74
2022/06/12 05:59:58;;;;;;;9.85;2.53;;;;;;;24.97;68.15;101187.97;5208661;28;20079;-74
2022/06/12 06:02:28;;;;;;;8.80;2.75;;;;;;;25.35;67.66;101187.41;5211870;28;20032;-74
2022/06/12 06:04:58;;;;;;;7.75;2.50;;;;;;;24.48;69.53;101196.72;5209708;28;20051;-74
2022/06/12 06:07:29;;;;;;;9.55;2.83;;;;;;;24.83;68.45;101196.31;5211623;28;20526;-73
2022/06/12 06:10:00;;;;;;;9.88;2.78;;;;;;;24.87;67.71;101199.59;5209235;28;20036;-74
2022/06/12 06:12:30;;;;;;;12.32;3.05;;;;;;;24.04;70.42;101200.34;5207823;28;20143;-73
2022/06/12 06:15:00;;;;;;;8.27;2.47;;;;;;;24.34;69.04;101197.84;5210694;28;20107;-74
2022/06/12 06:17:31;;;;;;;9.45;3.03;;;;;;;24.99;68.90;101202.06;5207545;28;20037;-73
2022/06/12 06:20:02;;;;;;;12.70;3.60;;;;;;;24.73;67.44;101191.88;5210987;28;20091;-73
2022/06/12 06:22:32;;;;;;;9.48;3.25;;;;;;;24.21;70.59;101205.19;5207378;28;20100;-74
2022/06/12 06:25:03;;;;;;;9.43;3.17;;;;;;;25.14;68.01;101194.59;5212165;28;20017;-74
2022/06/12 06:27:33;;;;;;;8.18;2.45;;;;;;;24.87;68.54;101195.13;5208203;28;20032;-73
2022/06/12 06:30:05;;;;;;;11.68;2.97;;;;;;;25.34;65.95;101199.09;5194633;28;20036;-73
2022/06/12 06:32:36;;;;;;;8.77;2.90;;;;;;;25.72;64.62;101196.56;5208684;28;20025;-74
2022/06/12 06:35:09;;;;;;;7.85;2.60;;;;;;;25.09;66.22;101204.81;5211949;28;20060;-74
2022/06/12 06:37:41;;;;;;;9.95;3.00;;;;;;;26.23;65.57;101195.50;5210856;28;20052;-72
2022/06/12 06:40:13;;;;;;;9.05;2.95;;;;;;;26.27;65.24;101204.09;5218079;28;20032;-72
2022/06/12 06:42:43;;;;;;;12.50;3.38;;;;;;;25.15;67.90;101215.00;5215864;28;20177;-74
2022/06/12 06:48:11;;;;;;;12.13;3.10;;;;;;;24.73;68.97;101204.44;5210267;28;20120;-73
2022/06/12 06:50:42;;;;;;;11.57;3.10;;;;;;;25.85;66.48;101199.91;5217168;28;20021;-74
2022/06/12 06:53:13;;;;;;;7.95;2.92;;;;;;;24.96;68.12;101206.88;5216341;28;20101;-74
2022/06/12 06:55:44;;;;;;;9.07;3.33;;;;;;;27.57;62.89;101187.16;5217659;28;20486;-74
2022/06/12 06:58:19;;;;;;;9.23;3.05;;;;;;;28.34;61.16;101188.47;5217416;28;20025;-74
2022/06/12 07:00:50;;;;;;;10.00;2.80;;;;;;;27.83;60.64;101192.75;5198298;28;20075;-74
2022/06/12 07:03:21;;;;;;;11.00;2.95;;;;;;;26.80;63.66;101207.09;5216149;28;20064;-74
2022/06/12 07:05:52;;;;;;;12.25;3.15;;;;;;;27.37;61.33;101188.25;5216119;28;20390;-72
2022/06/12 07:08:25;;;;;;;12.57;3.10;;;;;;;26.61;65.12;101202.72;5221031;28;20029;-75
2022/06/12 07:10:56;;;;;;;9.70;2.83;;;;;;;26.80;65.08;101204.41;5218064;28;20028;-75
2022/06/12 07:13:26;;;;;;;10.15;3.13;;;;;;;26.36;64.57;101198.72;5215820;28;20025;-74
2022/06/12 07:15:57;;;;;;;9.68;2.60;;;;;;;26.51;64.35;101197.38;5214718;28;20685;-74
2022/06/12 07:18:27;;;;;;;9.25;3.00;;;;;;;25.64;64.77;101199.94;5211674;28;20102;-74
2022/06/12 07:21:01;;;;;;;13.30;3.22;;;;;;;26.71;63.02;101192.84;5220229;28;20056;-75
2022/06/12 07:23:32;;;;;;;12.85;3.15;;;;;;;28.19;60.11;101190.00;5221846;28;20024;-74
2022/06/12 07:26:06;;;;;;;11.18;3.00;;;;;;;28.22;59.20;101187.00;5216748;28;20033;-74
2022/06/12 07:28:37;;;;;;;11.25;2.80;;;;;;;28.35;58.24;101186.63;5191349;28;20104;-75
2022/06/12 07:31:08;;;;;;;10.73;2.60;;;;;;;28.80;55.68;101193.63;5211825;28;20083;-74
2022/06/12 07:33:39;;;;;;;7.50;2.60;;;;;;;29.27;56.39;101187.75;5191604;28;20026;-74
2022/06/12 07:36:11;;;;;;;8.55;2.72;;;;;;;29.67;53.48;101195.25;5206514;28;20670;-75
2022/06/12 07:38:43;;;;;;;8.25;2.53;;;;;;;31.32;53.27;101186.78;5211408;28;20402;-74
2022/06/12 07:41:14;;;;;;;10.68;2.88;;;;;;;28.19;56.28;101192.69;5214900;28;20025;-74
2022/06/12 07:43:46;;;;;;;8.18;2.28;;;;;;;28.90;55.55;101195.25;5209109;28;20433;-75
2022/06/12 07:46:18;;;;;;;7.60;2.40;;;;;;;27.88;56.15;101185.06;5199642;28;20467;-75
2022/06/12 07:48:49;;;;;;;5.57;1.73;;;;;;;28.45;53.16;101198.19;5214552;28;20524;-74
2022/06/12 07:51:20;;;;;;;9.23;2.40;;;;;;;27.52;53.42;101191.28;5208775;28;20025;-74
2022/06/12 07:53:51;;;;;;;7.18;2.00;;;;;;;28.55;54.44;101191.72;5217222;28;20060;-74
2022/06/12 07:56:24;;;;;;;9.93;2.17;;;;;;;29.67;49.98;101185.34;5217772;28;20057;-75
2022/06/12 07:58:55;;;;;;;6.90;1.77;;;;;;;29.84;48.51;101200.56;5198872;28;20040;-74
2022/06/12 08:01:27;;;;;;;9.73;2.00;;;;;;;29.27;51.38;101203.09;5211207;28;20025;-74
2022/06/12 08:03:57;;;;;;;9.60;2.22;;;;;;;29.51;49.71;101190.66;5208691;28;20017;-74
2022/06/12 08:06:29;;;;;;;7.10;1.83;;;;;;;29.80;49.84;101198.34;5212341;28;20610;-74
2022/06/12 08:09:00;;;;;;;8.15;1.92;;;;;;;30.20;49.97;101193.13;5214166;28;20183;-74
2022/06/12 08:11:31;;;;;;;7.00;1.90;;;;;;;29.65;50.76;101202.66;5208066;28;20125;-74
2022/06/12 08:14:02;;;;;;;8.68;2.30;;;;;;;29.25;50.75;101205.94;5185587;28;20029;-74
2022/06/12 08:16:34;;;;;;;7.35;2.13;;;;;;;30.05;49.53;101205.59;5219547;28;20116;-73
2022/06/12 08:20:24;;;;;;;9.10;2.03;;;;;;;30.13;50.98;101202.91;5193106;28;20047;-75
2022/06/12 08:21:56;;;;;;;7.18;1.98;;;;;;;29.54;50.37;101205.66;5210581;28;20466;-73
2022/06/12 08:24:27;;;;;;;9.82;2.28;;;;;;;28.31;53.69;101210.28;5185402;23;20034;-73
2022/06/12 08:26:58;;;;;;;6.82;2.17;;;;;;;28.94;52.31;101212.81;5150655;28;20463;-73
2022/06/12 08:29:28;;;;;;;6.82;1.88;;;;;;;29.29;52.43;101207.34;5170828;28;20026;-73
2022/06/12 08:32:04;;;;;;;8.05;1.92;;;;;;;30.33;50.02;101207.00;5157969;28;20101;-73
2022/06/12 08:34:37;;;;;;;7.82;2.38;;;;;;;30.91;49.69;101198.66;5162833;28;20062;-73
2022/06/12 08:37:17;;;;;;;6.47;1.90;;;;;;;29.74;49.43;101204.41;5149601;28;20066;-73
2022/06/12 08:39:47;;;;;;;7.25;1.90;;;;;;;28.63;50.17;101215.19;5135007;28;20027;-73
2022/06/12 08:42:22;;;;;;;7.28;1.77;;;;;;;29.98;50.42;101207.19;5136017;28;20413;-73
2022/06/12 08:45:20;;;;;;;7.75;1.63;;;;;;;29.87;49.07;101202.09;5136530;28;20063;-73
2022/06/12 08:48:15;;;;;;;8.65;2.00;;;;;;;30.21;48.38;101200.22;5150978;28;20453;-73
2022/06/12 08:51:03;;;;;;;6.47;1.75;;;;;;;29.62;50.31;101203.84;5136069;28;20101;-73
2022/06/12 08:53:56;;;;;;;8.55;1.80;;;;;;;29.10;50.97;101206.69;5140602;28;20077;-73
2022/06/12 08:56:42;;;;;;;7.75;1.70;;;;;;;30.18;49.63;101200.53;5141195;28;20336;-73
2022/06/12 08:59:34;;;;;;;7.93;1.98;;;;;;;29.18;50.84;101199.50;5141679;28;20038;-73
2022/06/12 09:02:14;;;;;;;9.32;2.00;;;;;;;29.51;50.74;101195.19;5139283;28;20060;-73
2022/06/12 09:04:45;;;;;;;6.93;1.98;;;;;;;30.02;51.48;101195.06;5140695;28;20153;-73
2022/06/12 09:07:27;;;;;;;6.25;2.20;;;;;;;28.36;51.61;101197.25;5151600;28;20121;-73
2022/06/12 09:10:04;;;;;;;8.82;1.98;;;;;;;29.04;53.17;101189.31;5148340;28;20027;-73
2022/06/12 09:13:00;;;;;;;8.90;1.83;;;;;;;28.67;54.42;101195.03;5149722;28;20512;-73
2022/06/12 09:15:52;;;;;;;6.65;1.88;;;;;;;27.92;55.01;101187.31;5159270;28;20041;-73
2022/06/12 09:18:47;;;;;;;6.90;1.80;;;;;;;27.37;54.61;101182.00;5153737;28;20307;-73
2022/06/12 09:21:27;;;;;;;8.60;1.75;;;;;;;27.46;54.17;101191.88;5144395;28;20214;-73
2022/06/12 09:24:22;;;;;;;9.45;1.90;;;;;;;27.84;53.21;101187.22;5151130;28;20077;-73
2022/06/12 09:27:02;;;;;;;8.90;1.98;;;;;;;29.64;50.83;101184.81;5148127;28;20102;-73
2022/06/12 09:29:45;;;;;;;5.63;1.60;;;;;;;29.34;51.66;101182.59;5148887;28;20043;-73
2022/06/12 09:32:21;;;;;;;7.13;1.80;;;;;;;30.79;49.90;101168.59;5136618;28;20089;-73
2022/06/12 09:34:55;;;;;;;7.82;1.90;;;;;;;30.49;49.38;101178.19;5144101;28;20035;-73
2022/06/12 09:40:38;;;;;;;10.90;2.00;;;;;;;31.93;47.95;101168.03;5143364;28;20038;-74
2022/06/12 09:43:37;;;;;;;8.52;1.90;;;;;;;31.77;47.65;101180.75;5142094;28;20038;-74
2022/06/12 09:46:14;;;;;;;7.72;1.90;;;;;;;31.42;47.97;101176.66;5147879;28;20401;-73
2022/06/12 09:49:02;;;;;;;7.32;1.80;;;;;;;32.02;47.78;101176.94;5172221;28;20037;-73
2022/06/12 09:51:42;;;;;;;6.38;1.70;;;;;;;29.89;49.03;101173.13;5158066;28;20058;-73
2022/06/12 09:54:44;;;;;;;10.10;1.95;;;;;;;30.91;48.57;101168.09;5143641;28;20030;-73
2022/06/12 09:57:27;;;;;;;6.43;1.80;;;;;;;30.83;48.81;101159.16;5152632;28;20313;-74
2022/06/12 10:00:26;;;;;;;7.55;1.90;;;;;;;30.22;49.91;101159.59;5159565;28;20101;-74
2022/06/12 10:03:03;;;;;;;6.60;1.60;;;;;;;30.43;48.45;101161.81;5148824;28;20030;-74
2022/06/12 10:05:41;;;;;;;7.85;2.03;;;;;;;28.79;50.45;101167.69;5148826;28;20027;-74
2022/06/12 10:08:18;;;;;;;9.02;1.60;;;;;;;29.06;50.56;101162.22;5146204;28;20477;-73
2022/06/12 10:10:54;;;;;;;7.03;1.73;;;;;;;29.79;49.25;101150.84;5151379;28;20473;-73
2022/06/12 10:13:47;;;;;;;6.22;1.75;;;;;;;29.35;50.98;101146.56;5144778;28;20038;-73
2022/06/12 10:16:29;;;;;;;5.50;1.50;;;;;;;28.73;51.42;101148.63;5151209;28;20033;-71
2022/06/12 10:19:06;;;;;;;6.88;1.50;;;;;;;27.74;51.33;101146.09;5157286;28;20033;-73
2022/06/12 10:21:40;;;;;;;7.90;1.83;;;;;;;27.88;51.60;101144.75;5146791;28;20125;-73
2022/06/12 10:24:11;;;;;;;5.15;1.50;;;;;;;27.56;52.37;101150.56;5135605;28;20090;-73
2022/06/12 10:27:12;;;;;;;8.57;1.98;;;;;;;27.29;52.78;101131.72;5156169;28;20122;-73
2022/06/12 10:30:00;;;;;;;5.93;1.50;;;;;;;27.08;53.06;101125.69;5137889;28;20034;-72
2022/06/12 10:32:50;;;;;;;5.18;1.58;;;;;;;27.49;54.14;101133.34;5143152;28;20041;-73
2022/06/12 10:35:23;;;;;;;5.25;1.70;;;;;;;27.10;53.98;101121.06;5145212;28;20503;-73
2022/06/12 10:38:04;;;;;;;6.82;1.42;;;;;;;27.42;51.44;101128.72;5148600;28;20045;-73
2022/06/12 10:40:35;;;;;;;6.93;1.45;;;;;;;27.53;50.98;101112.38;5156392;28;20037;-73
2022/06/12 10:43:16;;;;;;;7.70;1.60;;;;;;;26.94;51.02;101112.72;5135213;28;20492;-74
2022/06/12 10:46:00;;;;;;;5.63;1.40;;;;;;;27.20;50.61;101115.66;5139381;28;20023;-73
2022/06/12 10:48:35;;;;;;;5.00;1.40;;;;;;;26.89;51.28;101117.69;5131779;28;20089;-73
2022/06/12 10:51:23;;;;;;;5.97;1.67;;;;;;;26.72;51.97;101111.38;5146475;28;20424;-73
2022/06/12 10:54:09;;;;;;;5.57;1.30;;;;;;;27.00;52.31;101117.53;5144908;28;20317;-74
2022/06/12 10:56:51;;;;;;;4.00;1.05;;;;;;;27.42;51.14;101108.06;5144584;28;20051;-73
2022/06/12 10:59:39;;;;;;;5.25;1.23;;;;;;;27.76;51.05;101102.97;5135196;28;20041;-73
2022/06/12 11:02:44;;;;;;;4.22;1.08;;;;;;;27.51;49.82;101100.94;5141210;28;20485;-73
2022/06/12 11:05:21;;;;;;;4.90;1.10;;;;;;;27.42;50.19;101100.00;5123520;28;20035;-73
2022/06/12 11:08:09;;;;;;;6.55;1.25;;;;;;;26.89;51.38;101096.22;5130708;28;20121;-73
2022/06/12 11:10:52;;;;;;;4.22;1.20;;;;;;;27.37;50.87;101102.31;5139723;28;20386;-73
2022/06/12 11:13:22;;;;;;;3.75;1.00;;;;;;;26.88;51.34;101097.22;5136477;28;20043;-73
2022/06/12 11:16:26;;;;;;;6.27;1.40;;;;;;;26.72;51.40;101095.28;5133334;28;20449;-73
2022/06/12 11:19:15;;;;;;;7.18;1.40;;;;;;;27.08;51.51;101093.47;5135399;28;20270;-73
2022/06/12 11:22:03;;;;;;;3.97;1.40;;;;;;;27.17;51.26;101092.66;5139701;28;20129;-73
2022/06/12 11:24:49;;;;;;;5.43;1.42;;;;;;;27.37;51.89;101077.28;5158654;28;20141;-73
2022/06/12 11:27:29;;;;;;;6.93;1.40;;;;;;;26.77;51.55;101085.81;5156749;28;20109;-73
2022/06/12 11:30:10;;;;;;;4.80;1.30;;;;;;;26.33;51.36;101091.75;5142361;28;20034;-73
2022/06/12 11:33:03;;;;;;;7.78;1.60;;;;;;;25.95;51.41;101089.09;5149947;28;20055;-73
2022/06/12 11:36:09;;;;;;;6.97;1.33;;;;;;;26.12;51.74;101082.16;5156256;28;20029;-73
2022/06/12 11:39:00;;;;;;;10.83;1.40;;;;;;;26.26;52.15;101071.88;5150869;28;20030;-73
2022/06/12 11:42:00;;;;;;;5.15;1.20;;;;;;;26.44;51.78;101072.84;5154883;28;20515;-73
2022/06/12 11:44:37;;;;;;;4.75;1.35;;;;;;;26.60;51.62;101072.28;5151930;28;20026;-73
2022/06/12 11:47:20;;;;;;;6.25;1.30;;;;;;;26.55;52.57;101074.56;5156130;28;20029;-73
2022/06/12 11:50:26;;;;;;;5.00;1.30;;;;;;;26.44;52.03;101077.34;5161357;28;20420;-73
2022/06/12 11:53:25;;;;;;;4.53;1.40;;;;;;;26.26;51.43;101069.22;5136160;28;20046;-73
2022/06/12 11:55:59;;;;;;;6.80;1.42;;;;;;;26.49;53.07;101057.19;5148057;28;20045;-74
2022/06/12 11:58:41;;;;;;;5.35;1.50;;;;;;;26.32;52.15;101052.53;5160702;28;20041;-74
2022/06/12 12:01:24;;;;;;;4.70;1.25;;;;;;;26.46;52.86;101059.28;5146271;28;20034;-73
2022/06/12 12:04:03;;;;;;;6.18;1.60;;;;;;;26.44;53.53;101053.22;5156247;28;20400;-73
2022/06/12 12:06:54;;;;;;;7.63;1.50;;;;;;;26.21;52.48;101065.25;5151704;28;20444;-73
2022/06/12 12:09:30;;;;;;;5.18;1.33;;;;;;;26.17;53.63;101048.59;5154221;28;20052;-73
2022/06/12 12:12:06;;;;;;;6.57;1.50;;;;;;;26.38;51.25;101046.59;5159989;28;20030;-73
2022/06/12 12:14:40;;;;;;;5.60;1.52;;;;;;;26.72;52.37;101045.16;5150144;28;20389;-73
2022/06/12 12:17:18;;;;;;;5.15;1.38;;;;;;;26.40;51.75;101049.16;5159194;28;20487;-73
2022/06/12 12:19:59;;;;;;;4.00;1.30;;;;;;;26.41;53.03;101045.47;5160361;28;20080;-73
2022/06/12 12:22:42;;;;;;;8.10;1.50;;;;;;;26.34;52.17;101049.72;5159894;28;20630;-72
2022/06/12 12:25:27;;;;;;;5.65;1.38;;;;;;;26.30;52.51;101042.94;5154614;28;20023;-73
2022/06/12 12:28:03;;;;;;;5.90;1.57;;;;;;;26.45;51.62;101036.16;5152887;28;20045;-73